createdAt,value
2024-04-18T00:01:38.236Z,99.0
2024-04-18T00:03:39.068Z,99.0
2024-04-18T00:06:39.903Z,99.0
2024-04-18T00:11:43.707Z,99.0
2024-04-18T00:13:48.326Z,99.0
2024-04-18T00:18:49.003Z,99.0
2024-04-18T00:21:49.684Z,99.0
2024-04-18T00:23:50.314Z,99.0
2024-04-18T00:26:50.870Z,99.0
2024-04-18T00:28:51.441Z,99.0
2024-04-18T00:31:52.080Z,99.0
2024-04-18T00:33:52.827Z,99.0
2024-04-18T00:36:53.478Z,99.0
2024-04-18T00:39:54.083Z,99.0
2024-04-18T00:41:54.704Z,99.0
2024-04-18T00:46:55.290Z,99.0
2024-04-18T00:49:55.825Z,99.0
2024-04-18T00:51:56.419Z,99.0
2024-04-18T00:54:56.956Z,99.0
2024-04-18T00:59:57.485Z,99.0
2024-04-18T01:01:58.004Z,99.0
2024-04-18T01:04:58.701Z,99.0
2024-04-18T01:07:59.369Z,99.0
2024-04-18T01:09:59.942Z,99.0
2024-04-18T01:13:00.607Z,99.0
2024-04-18T01:15:01.169Z,99.0
2024-04-18T01:18:01.850Z,99.0
2024-04-18T01:20:02.630Z,99.0
2024-04-18T01:23:03.237Z,99.0
2024-04-18T01:25:03.902Z,99.0
2024-04-18T01:28:04.532Z,99.0
2024-04-18T01:30:05.093Z,99.0
2024-04-18T01:33:05.824Z,99.0
2024-04-18T01:35:06.456Z,99.0
2024-04-18T01:40:07.021Z,99.0
2024-04-18T01:43:07.658Z,99.0
2024-04-18T01:45:08.229Z,99.0
2024-04-18T01:48:08.988Z,99.0
2024-04-18T01:50:09.835Z,99.0
2024-04-18T01:53:10.396Z,99.0
2024-04-18T01:55:10.946Z,99.0
2024-04-18T01:58:11.482Z,99.0
2024-04-18T02:01:12.189Z,99.0
2024-04-18T02:03:13.186Z,99.0
2024-04-18T02:06:14.172Z,99.0
2024-04-18T02:08:14.926Z,99.0
2024-04-18T02:11:15.615Z,99.0
2024-04-18T02:13:16.208Z,99.0
2024-04-18T02:16:17.009Z,99.0
2024-04-18T02:21:17.634Z,99.0
2024-04-18T02:23:18.204Z,99.0
2024-04-18T02:26:18.768Z,99.0
2024-04-18T02:28:19.382Z,99.0
2024-04-18T02:31:19.928Z,99.0
2024-04-18T02:33:20.519Z,99.0
2024-04-18T02:36:21.320Z,99.0
2024-04-18T02:39:22.087Z,99.0
2024-04-18T02:41:22.695Z,99.0
2024-04-18T02:44:23.239Z,99.0
2024-04-18T02:46:23.791Z,99.0
2024-04-18T02:49:24.376Z,99.0
2024-04-18T02:51:25.003Z,99.0
2024-04-18T02:54:25.716Z,99.0
2024-04-18T02:56:26.379Z,99.0
2024-04-18T03:01:27.063Z,99.0
2024-04-18T03:04:27.822Z,99.0
2024-04-18T03:06:28.528Z,99.0
2024-04-18T03:09:29.162Z,99.0
2024-04-18T03:12:29.972Z,99.0
2024-04-18T03:14:30.664Z,99.0
2024-04-18T03:17:31.370Z,99.0
2024-04-18T03:19:31.992Z,99.0
2024-04-18T03:22:32.622Z,99.0
2024-04-18T03:24:33.319Z,99.0
2024-04-18T03:27:33.998Z,99.0
2024-04-18T03:29:34.593Z,99.0
2024-04-18T03:32:35.279Z,99.0
2024-04-18T03:34:35.971Z,99.0
2024-04-18T03:37:38.855Z,99.0
2024-04-18T03:42:39.685Z,99.0
2024-04-18T03:44:40.463Z,99.0
2024-04-18T03:47:41.225Z,99.0
2024-04-18T03:49:41.920Z,99.0
2024-04-18T03:52:42.479Z,99.0
2024-04-18T03:55:01.923Z,99.0
2024-04-18T03:58:03.801Z,99.0
2024-04-18T04:00:04.366Z,99.0
2024-04-18T04:03:04.941Z,99.0
2024-04-18T04:05:05.531Z,99.0
2024-04-18T04:08:06.090Z,99.0
2024-04-18T04:10:06.679Z,99.0
2024-04-18T04:13:07.227Z,99.0
2024-04-18T04:15:07.796Z,99.0
2024-04-18T04:18:08.615Z,99.0
2024-04-18T04:23:09.391Z,99.0
2024-04-18T04:25:09.955Z,99.0
2024-04-18T04:28:10.494Z,99.0
2024-04-18T04:31:11.030Z,99.0
2024-04-18T04:33:11.669Z,99.0
2024-04-18T04:36:12.265Z,99.0
2024-04-18T04:38:12.826Z,99.0
2024-04-18T04:41:13.392Z,99.0
2024-04-18T04:43:13.983Z,99.0
2024-04-18T04:46:14.495Z,99.0
2024-04-18T04:48:15.346Z,99.0
2024-04-18T04:51:16.591Z,99.0
2024-04-18T04:53:17.225Z,99.0
2024-04-18T04:56:17.852Z,99.0
2024-04-18T04:58:18.429Z,99.0
2024-04-18T05:03:19.135Z,99.0
2024-04-18T05:06:19.903Z,99.0
2024-04-18T05:08:20.513Z,99.0
2024-04-18T05:11:21.234Z,99.0
2024-04-18T05:14:22.034Z,99.0
2024-04-18T05:16:26.465Z,99.0
2024-04-18T05:19:27.359Z,99.0
2024-04-18T05:21:27.949Z,99.0
2024-04-18T05:24:28.675Z,99.0
2024-04-18T05:26:29.283Z,99.0
2024-04-18T05:29:29.895Z,99.0
2024-04-18T05:31:30.513Z,99.0
2024-04-18T05:34:31.065Z,99.0
2024-04-18T05:36:31.925Z,99.0
2024-04-18T05:39:32.603Z,99.0
2024-04-18T05:44:33.233Z,99.0
2024-04-18T05:47:34.433Z,99.0
2024-04-18T05:49:35.085Z,99.0
2024-04-18T05:52:35.647Z,99.0
2024-04-18T05:54:36.259Z,99.0
2024-04-18T05:56:36.888Z,99.0
2024-04-18T05:59:37.444Z,99.0
2024-04-18T06:02:38.064Z,99.0
2024-04-18T06:04:38.728Z,99.0
2024-04-18T06:07:43.250Z,99.0
2024-04-18T06:09:47.131Z,99.0
2024-04-18T06:12:48.042Z,99.0
2024-04-18T06:14:48.784Z,99.0
2024-04-18T06:17:49.383Z,99.0
2024-04-18T06:19:50.040Z,99.0
2024-04-18T06:24:50.697Z,99.0
2024-04-18T06:27:51.450Z,99.0
2024-04-18T06:29:52.184Z,99.0
2024-04-18T06:32:52.864Z,99.0
2024-04-18T06:34:53.493Z,99.0
2024-04-18T06:37:54.120Z,99.0
2024-04-18T06:40:54.701Z,99.0
2024-04-18T06:42:55.354Z,99.0
2024-04-18T06:45:56.139Z,99.0
2024-04-18T06:47:57.237Z,99.0
2024-04-18T06:50:58.564Z,99.0
2024-04-18T06:52:59.114Z,99.0
2024-04-18T06:55:59.683Z,99.0
2024-04-18T06:58:00.651Z,99.0
2024-04-18T07:01:01.627Z,99.0
2024-04-18T07:06:02.421Z,99.0
2024-04-18T07:08:03.033Z,99.0
2024-04-18T07:11:03.672Z,99.0
2024-04-18T07:13:04.457Z,99.0
2024-04-18T07:16:05.066Z,99.0
2024-04-18T07:18:05.886Z,99.0
2024-04-18T07:21:06.590Z,99.0
2024-04-18T07:23:07.225Z,99.0
2024-04-18T07:26:07.811Z,99.0
2024-04-18T07:29:08.339Z,99.0
2024-04-18T07:31:08.847Z,99.0
2024-04-18T07:34:09.495Z,99.0
2024-04-18T07:36:10.130Z,99.0
2024-04-18T07:39:10.752Z,99.0
2024-04-18T07:41:11.298Z,99.0
2024-04-18T07:46:11.910Z,99.0
2024-04-18T07:49:12.627Z,99.0
2024-04-18T07:51:13.515Z,99.0
2024-04-18T07:54:14.211Z,99.0
2024-04-18T07:56:15.830Z,99.0
2024-04-18T07:59:19.344Z,99.0
2024-04-18T08:01:24.691Z,99.0
2024-04-18T08:04:55.021Z,99.0
2024-04-18T08:09:08.227Z,99.0
2024-04-18T08:12:22.513Z,99.0
2024-04-18T08:14:38.522Z,99.0
2024-04-18T08:16:46.838Z,99.0
2024-04-18T08:19:47.563Z,99.0
2024-04-18T08:21:48.159Z,99.0
2024-04-18T08:26:48.752Z,99.0
2024-04-18T08:29:49.334Z,99.0
2024-04-18T08:31:49.983Z,99.0
2024-04-18T08:34:50.665Z,99.0
2024-04-18T08:37:51.282Z,99.0
2024-04-18T08:39:51.858Z,99.0
2024-04-18T08:42:52.502Z,99.0
2024-04-18T08:44:53.151Z,99.0
2024-04-18T08:47:53.918Z,99.0
2024-04-18T08:49:54.699Z,99.0
2024-04-18T08:52:55.278Z,99.0
2024-04-18T08:54:55.832Z,99.0
2024-04-18T08:57:56.422Z,99.0
2024-04-18T08:59:56.956Z,99.0
2024-04-18T09:02:57.569Z,99.0
2024-04-18T09:07:58.176Z,99.0
2024-04-18T09:09:58.717Z,99.0
2024-04-18T09:13:04.242Z,99.0
2024-04-18T09:15:08.270Z,99.0
2024-04-18T09:18:09.250Z,99.0
2024-04-18T09:20:10.278Z,99.0
2024-04-18T09:23:10.860Z,99.0
2024-04-18T09:25:11.453Z,99.0
2024-04-18T09:28:12.026Z,99.0
2024-04-18T09:31:14.210Z,99.0
2024-04-18T09:33:20.118Z,99.0
2024-04-18T09:35:21.080Z,99.0
2024-04-18T09:38:21.776Z,99.0
2024-04-18T09:40:22.294Z,99.0
2024-04-18T09:48:23.104Z,99.0
2024-04-18T09:51:24.100Z,99.0
2024-04-18T09:53:24.813Z,99.0
2024-04-18T09:56:25.427Z,99.0
2024-04-18T09:58:25.957Z,99.0
2024-04-18T10:01:26.563Z,99.0
2024-04-18T10:03:27.278Z,99.0
2024-04-18T10:06:28.061Z,99.0
2024-04-18T10:08:28.985Z,99.0
2024-04-18T10:11:29.653Z,99.0
2024-04-18T10:13:30.284Z,99.0
2024-04-18T10:16:30.848Z,99.0
2024-04-18T10:19:31.450Z,99.0
2024-04-18T10:21:49.695Z,99.0
2024-04-18T10:24:17.786Z,99.0
2024-04-18T10:29:18.542Z,99.0
2024-04-18T10:34:19.098Z,99.0
2024-04-18T10:36:19.701Z,99.0
2024-04-18T10:39:20.429Z,99.0
2024-04-18T10:41:21.042Z,99.0
2024-04-18T10:44:21.626Z,99.0
2024-04-18T10:47:22.514Z,99.0
2024-04-18T10:49:23.480Z,99.0
2024-04-18T10:52:24.289Z,99.0
2024-04-18T10:54:25.107Z,99.0
2024-04-18T10:57:25.907Z,99.0
2024-04-18T10:59:26.517Z,99.0
2024-04-18T11:02:30.105Z,99.0
2024-04-18T11:04:34.528Z,99.0
2024-04-18T11:09:35.521Z,99.0
2024-04-18T11:12:36.318Z,99.0
2024-04-18T11:14:37.221Z,99.0
2024-04-18T11:17:38.211Z,99.0
2024-04-18T11:19:38.999Z,99.0
2024-04-18T11:22:39.577Z,99.0
2024-04-18T11:24:40.233Z,99.0
2024-04-18T11:27:40.937Z,99.0
2024-04-18T11:29:41.553Z,99.0
2024-04-18T11:32:42.230Z,99.0
2024-04-18T11:34:42.897Z,99.0
2024-04-18T11:37:43.518Z,99.0
2024-04-18T11:40:44.078Z,99.0
2024-04-18T11:42:44.772Z,99.0
2024-04-18T11:45:45.517Z,99.0
2024-04-18T11:50:46.291Z,99.0
2024-04-18T11:52:46.922Z,99.0
2024-04-18T11:55:47.482Z,99.0
2024-04-18T11:57:48.059Z,1.0
2024-04-18T12:00:48.634Z,99.0
2024-04-18T12:02:49.284Z,0.0
2024-04-18T12:05:49.954Z,5.0
2024-04-18T12:07:50.612Z,18.0
2024-04-18T12:10:51.215Z,12.0
2024-04-18T12:12:51.869Z,2.0
2024-04-18T12:15:52.651Z,12.0
2024-04-18T12:18:53.418Z,9.0
2024-04-18T12:20:53.958Z,15.0
2024-04-18T12:23:54.529Z,15.0
2024-04-18T12:25:55.130Z,18.0
2024-04-18T12:30:55.725Z,40.0
2024-04-18T12:33:56.431Z,39.0
2024-04-18T12:35:57.067Z,42.0
2024-04-18T12:38:57.639Z,39.0
2024-04-18T12:43:58.227Z,12.0
2024-04-18T12:46:15.004Z,1.0
2024-04-18T12:49:24.849Z,99.0
2024-04-18T12:51:26.200Z,99.0
2024-04-18T12:54:26.994Z,99.0
2024-04-18T12:56:27.727Z,99.0
2024-04-18T12:59:28.357Z,99.0
2024-04-18T13:01:29.012Z,99.0
2024-04-18T13:04:29.819Z,0.0
2024-04-18T13:06:30.610Z,5.0
2024-04-18T13:11:31.265Z,4.0
2024-04-18T13:14:31.805Z,5.0
2024-04-18T13:16:32.788Z,1.0
2024-04-18T13:19:33.415Z,6.0
2024-04-18T13:21:34.248Z,99.0
2024-04-18T13:24:35.054Z,99.0
2024-04-18T13:26:35.735Z,99.0
2024-04-18T13:29:36.292Z,99.0
2024-04-18T13:32:37.085Z,99.0
2024-04-18T13:34:37.973Z,99.0
2024-04-18T13:37:38.804Z,99.0
2024-04-18T13:39:39.470Z,99.0
2024-04-18T13:42:40.286Z,99.0
2024-04-18T13:44:40.884Z,99.0
2024-04-18T13:47:41.688Z,99.0
2024-04-18T13:52:42.446Z,99.0
2024-04-18T13:54:43.047Z,99.0
2024-04-18T13:57:43.760Z,99.0
2024-04-18T13:59:44.409Z,99.0
2024-04-18T14:02:45.013Z,99.0
2024-04-18T14:04:45.777Z,99.0
2024-04-18T14:07:46.499Z,99.0
2024-04-18T14:09:47.215Z,99.0
2024-04-18T14:12:47.883Z,99.0
2024-04-18T14:15:48.455Z,99.0
2024-04-18T14:17:49.178Z,99.0
2024-04-18T14:20:49.751Z,99.0
2024-04-18T14:22:50.363Z,99.0
2024-04-18T14:25:50.921Z,99.0
2024-04-18T14:27:51.524Z,99.0
2024-04-18T14:32:52.239Z,99.0
2024-04-18T14:35:52.922Z,99.0
2024-04-18T14:37:56.671Z,99.0
2024-04-18T14:41:12.023Z,99.0
2024-04-18T14:43:13.506Z,99.0
2024-04-18T14:46:14.166Z,99.0
2024-04-18T14:48:14.788Z,99.0
2024-04-18T14:51:15.410Z,99.0
2024-04-18T14:53:16.034Z,99.0
2024-04-18T14:56:16.722Z,99.0
2024-04-18T14:58:17.363Z,99.0
2024-04-18T15:01:18.056Z,99.0
2024-04-18T15:03:19.123Z,99.0
2024-04-18T15:06:20.080Z,99.0
2024-04-18T15:08:20.702Z,99.0
2024-04-18T15:13:21.287Z,99.0
2024-04-18T15:16:21.837Z,99.0
2024-04-18T15:19:22.401Z,99.0
2024-04-18T15:21:23.026Z,99.0
2024-04-18T15:24:24.140Z,99.0
2024-04-18T15:26:24.926Z,99.0
2024-04-18T15:29:25.489Z,99.0
2024-04-18T15:31:26.152Z,99.0
2024-04-18T15:34:26.786Z,99.0
2024-04-18T15:36:27.370Z,99.0
2024-04-18T15:39:28.045Z,99.0
2024-04-18T15:41:28.630Z,99.0
2024-04-18T15:44:29.190Z,99.0
2024-04-18T15:46:29.736Z,99.0
2024-04-18T15:49:30.348Z,99.0
2024-04-18T15:54:31.004Z,99.0
2024-04-18T15:57:31.743Z,99.0
2024-04-18T15:59:32.517Z,99.0
2024-04-18T16:01:33.109Z,99.0
2024-04-18T16:04:33.739Z,99.0
2024-04-18T16:07:34.333Z,99.0
2024-04-18T16:09:35.048Z,99.0
2024-04-18T16:12:35.842Z,99.0
2024-04-18T16:14:36.576Z,99.0
2024-04-18T16:17:37.207Z,2.0
2024-04-18T16:19:37.795Z,21.0
2024-04-18T16:22:38.386Z,24.0
2024-04-18T16:24:39.226Z,30.0
2024-04-18T16:27:40.102Z,21.0
2024-04-18T16:29:40.757Z,16.0
2024-04-18T16:34:41.350Z,4.0
2024-04-18T16:37:42.140Z,4.0
2024-04-18T16:39:43.087Z,3.0
2024-04-18T16:42:43.902Z,99.0
2024-04-18T16:45:44.520Z,99.0
2024-04-18T16:47:45.161Z,99.0
2024-04-18T16:50:45.790Z,99.0
2024-04-18T16:52:46.373Z,99.0
2024-04-18T16:55:46.979Z,99.0
2024-04-18T16:57:47.651Z,99.0
2024-04-18T17:00:48.469Z,99.0
2024-04-18T17:02:49.384Z,99.0
2024-04-18T17:05:50.234Z,99.0
2024-04-18T17:07:50.885Z,99.0
2024-04-18T17:10:51.507Z,99.0
2024-04-18T17:15:52.107Z,99.0
2024-04-18T17:18:52.952Z,99.0
2024-04-18T17:20:53.746Z,99.0
2024-04-18T17:23:54.303Z,99.0
2024-04-18T17:25:54.867Z,99.0
2024-04-18T17:28:55.487Z,99.0
2024-04-18T17:33:56.027Z,99.0
2024-04-18T17:35:56.660Z,99.0
2024-04-18T17:38:57.269Z,99.0
2024-04-18T17:40:59.265Z,99.0
2024-04-18T17:44:05.124Z,99.0
2024-04-18T17:46:07.380Z,99.0
2024-04-18T17:49:08.135Z,99.0
2024-04-18T17:51:08.863Z,99.0
2024-04-18T17:56:09.479Z,99.0
2024-04-18T17:59:10.031Z,99.0
2024-04-18T18:01:10.636Z,99.0
2024-04-18T18:04:11.790Z,99.0
2024-04-18T18:07:12.824Z,99.0
2024-04-18T18:09:13.445Z,99.0
2024-04-18T18:11:14.189Z,99.0
2024-04-18T18:14:15.301Z,99.0
2024-04-18T18:17:15.867Z,99.0
2024-04-18T18:19:16.816Z,99.0
2024-04-18T18:22:17.728Z,99.0
2024-04-18T18:24:18.339Z,99.0
2024-04-18T18:27:19.168Z,99.0
2024-04-18T18:29:19.775Z,99.0
2024-04-18T18:32:20.503Z,99.0
2024-04-18T18:37:21.253Z,99.0
2024-04-18T18:39:21.934Z,99.0
2024-04-18T18:42:22.664Z,99.0
2024-04-18T18:44:23.308Z,99.0
2024-04-18T18:47:23.937Z,99.0
2024-04-18T18:50:24.569Z,99.0
2024-04-18T18:52:25.148Z,99.0
2024-04-18T18:55:25.683Z,99.0
2024-04-18T18:57:26.402Z,99.0
2024-04-18T19:00:27.008Z,99.0
2024-04-18T19:02:27.740Z,99.0
2024-04-18T19:05:28.358Z,99.0
2024-04-18T19:07:28.948Z,99.0
2024-04-18T19:10:29.493Z,99.0
2024-04-18T19:12:30.133Z,99.0
2024-04-18T19:17:30.897Z,99.0
2024-04-18T19:20:31.522Z,99.0
2024-04-18T19:22:32.110Z,99.0
2024-04-18T19:25:32.649Z,99.0
2024-04-18T19:28:33.202Z,99.0
2024-04-18T19:30:33.946Z,99.0
2024-04-18T19:33:34.763Z,99.0
2024-04-18T19:35:35.481Z,99.0
2024-04-18T19:38:36.048Z,99.0
2024-04-18T19:40:36.638Z,99.0
2024-04-18T19:43:37.200Z,99.0
2024-04-18T19:45:37.792Z,99.0
2024-04-18T19:48:38.699Z,99.0
2024-04-18T19:50:39.444Z,99.0
2024-04-18T19:53:40.033Z,99.0
2024-04-18T19:58:40.608Z,99.0
2024-04-18T20:00:41.376Z,99.0
2024-04-18T20:03:42.372Z,99.0
2024-04-18T20:05:43.151Z,99.0
2024-04-18T20:08:45.960Z,99.0
2024-04-18T20:10:46.516Z,99.0
2024-04-18T20:13:47.072Z,99.0
2024-04-18T20:16:47.730Z,99.0
2024-04-18T20:18:48.578Z,99.0
2024-04-18T20:21:49.596Z,99.0
2024-04-18T20:23:50.226Z,99.0
2024-04-18T20:26:50.783Z,99.0
2024-04-18T20:28:51.372Z,99.0
2024-04-18T20:31:51.995Z,99.0
2024-04-18T20:33:52.929Z,99.0
2024-04-18T20:38:53.659Z,99.0
2024-04-18T20:41:54.243Z,99.0
2024-04-18T20:43:54.885Z,99.0
2024-04-18T20:46:55.449Z,99.0
2024-04-18T20:49:55.977Z,99.0
2024-04-18T20:51:56.558Z,99.0
2024-04-18T20:54:57.144Z,99.0
2024-04-18T20:56:57.719Z,99.0
2024-04-18T20:58:58.265Z,99.0
2024-04-18T21:01:58.964Z,99.0
2024-04-18T21:04:59.730Z,99.0
2024-04-18T21:07:00.448Z,99.0
2024-04-18T21:10:01.164Z,99.0
2024-04-18T21:12:01.893Z,99.0
2024-04-18T21:15:02.598Z,99.0
2024-04-18T21:20:03.301Z,99.0
2024-04-18T21:22:04.052Z,99.0
2024-04-18T21:25:04.779Z,99.0
2024-04-18T21:27:05.544Z,99.0
2024-04-18T21:30:06.250Z,99.0
2024-04-18T21:32:06.997Z,99.0
2024-04-18T21:35:07.722Z,99.0
2024-04-18T21:37:08.453Z,99.0
2024-04-18T21:40:09.163Z,99.0
2024-04-18T21:43:09.925Z,99.0
2024-04-18T21:45:10.738Z,99.0
2024-04-18T21:48:11.859Z,99.0
2024-04-18T21:50:12.758Z,99.0
2024-04-18T21:53:13.647Z,99.0
2024-04-18T21:55:15.916Z,99.0
2024-04-18T22:00:17.002Z,99.0
2024-04-18T22:03:18.021Z,99.0
2024-04-18T22:05:18.826Z,99.0
2024-04-18T22:08:19.673Z,99.0
2024-04-18T22:10:20.391Z,99.0
2024-04-18T22:13:21.132Z,99.0
2024-04-18T22:15:21.929Z,99.0
2024-04-18T22:18:22.878Z,99.0
2024-04-18T22:20:23.945Z,99.0
2024-04-18T22:23:24.668Z,99.0
2024-04-18T22:25:25.378Z,99.0
2024-04-18T22:28:26.099Z,99.0
2024-04-18T22:31:26.824Z,99.0
2024-04-18T22:33:27.754Z,99.0
2024-04-18T22:36:28.770Z,99.0
2024-04-18T22:41:29.821Z,99.0
2024-04-18T22:43:30.501Z,99.0
2024-04-18T22:46:31.234Z,99.0
2024-04-18T22:48:32.293Z,99.0
2024-04-18T22:51:33.403Z,99.0
2024-04-18T22:53:34.228Z,99.0
2024-04-18T22:56:34.954Z,99.0
2024-04-18T22:58:35.658Z,99.0
2024-04-18T23:01:36.485Z,99.0
2024-04-18T23:03:37.521Z,99.0
2024-04-18T23:06:38.499Z,99.0
2024-04-18T23:08:39.307Z,99.0
2024-04-18T23:11:40.037Z,99.0
2024-04-18T23:14:40.795Z,99.0
2024-04-18T23:16:41.512Z,99.0
2024-04-18T23:21:42.323Z,99.0
2024-04-18T23:24:43.519Z,99.0
2024-04-18T23:26:44.380Z,99.0
2024-04-18T23:29:45.197Z,99.0
2024-04-18T23:31:45.914Z,99.0
2024-04-18T23:34:46.656Z,99.0
2024-04-18T23:36:47.480Z,99.0
2024-04-18T23:39:48.462Z,99.0
2024-04-18T23:41:49.349Z,99.0
2024-04-18T23:44:50.099Z,99.0
2024-04-18T23:46:51.048Z,99.0
2024-04-18T23:49:51.764Z,99.0
2024-04-18T23:51:52.627Z,99.0
2024-04-18T23:54:53.479Z,99.0
2024-04-18T23:56:54.237Z,99.0
